Charlevoix, MI

1:37 AM EDT on October 26, 2014 (GMT -0400)
1.5 W Ironton | Change Station
CLOSE
Current Station
Personal Weather Station
Location: Charlevoix, MI
Elevation: 750 ft
Nearby Weather Stations

Elev 750 ft 45.26 °N, 85.22 °W | Updated 5 seconds ago

Clear
Clear
49.9 °F
Feels Like 46 °F
N
11.0
Wind Variable Wind from WNW
Gusts 16.0 mph

Today
High -- | Low -- °F
--% Chance of Precip.
Yesterday
High -- | Low -- °F
Precip. -- in
8:11 AM 6:37 PM
Waxing Crescent, 6% visible
Pressure 29.83 in
Visibility 10.0 miles
Clouds Clear
Windchill 46 °F
Dew Point 39 °F
Humidity 65%
Rainfall 0.00 in
Snow Depth Not available.
UV 0 out of 12
Pollen 1.90 out of 12
Ozone Good
PM2.5 Good
Flu Activity Sporadic
METAR KCVX 260514Z AUTO 30014G19KT 10SM CLR 11/03 A2983 RMK AO2 T01070027

More Conditions Fewer Conditions

Pressure 29.83 in
Visibility 10.0 miles
Clouds Clear
Windchill 46 °F
Dew Point 39 °F
Humidity 65%
Rainfall 0.00 in
Snow Depth Not available.
UV 0 out of 12
Pollen 1.90 out of 12
Ozone Good
PM2.5 Good
Flu Activity Sporadic
METAR KCVX 260514Z AUTO 30014G19KT 10SM CLR 11/03 A2983 RMK AO2 T01070027

More Conditions Fewer Conditions

Nowcast | as of 1:00 am EDT on October 26, 2014

At 2 am...clear. Temperature 49. Northwest winds 16 mph. At 4 am...clear. Temperature 46. Northwest winds 15 mph. At 8 am...mostly clear. Temperature 46. Northwest winds 12 mph. Wind chill 120 below.

×

10-Day Weather Forecast

Almanac

Astronomy

Oct. 26, 2014 Rise Set
Actual Time 8:11 AM EDT 6:37 PM EDT
Civil Twilight 7:41 AM EDT 7:07 PM EDT
Nautical Twilight 7:06 AM EDT 7:42 PM EDT
Astronomical Twilight 6:32 AM EDT 8:16 PM EDT
Moon 10:54 AM EDT 8:43 PM EDT
Length of Visible Light 11h 26m
Length of Day
10h 25m
Tomorrow will be 2m 56s shorter.
Waxing Crescent, 6% of the Moon is Illuminated
Today
Waxing Crescent
Oct 30
First Quarter
Nov 6
Full
Nov 14
Last Quarter
Nov 22
New

Today's Extremes

State Highs State Lows

Community

WunderPhotos

Upload Photos

1,765,112 photos uploaded!

Nearby

Air Quality

  Air Quality AQ Index Pollutant
Yesterday Good
OZONE
Yesterday Good
PM2.5
Current Good
OZONE
Current Good
PM2.5
Sunday Good
PM2.5
Monday Good
PM2.5

Snow Depth

Station Depth Elevation
No new snow has been reported.

Earthquake Activity

City Distance Mag. Time & Date
No recent earthquake activity has been reported nearby.
Minimum magnitude displayed is 2.5.

Coastal Water Temperatures

Place Temperature
Mackinaw City, MI 53.1 °F
Port Inland, MI 51.1 °F

Nearby Weather Stations